Sparta, Ohio
Current Conditions -  °F | °C
As of 2:36 PM on Thursday 27 Nov 2014 (Local Time) from K4I3 Reporting Station
Broken Clouds Broken Clouds  
Wind Chill: 25°   Ceiling: 4600
Heat Index: 32°   Visibility: 10mi
Dew Point: 23°   Wind: 8mph
Humidity: 69%   Direction: 270°W
Pressure: 30.16"   Gusts: NA
Location:  40.39°N, 82.7°W
Report Text: K4I3 271936Z AUTO 27007KT 10SM SCT040 BKN046 00/M05 A3016 RMK AO2
Loading
Personal Weather Stations






























Interactive Weather Map New forecast layout! Learn more

10-Day Weather Forecast

Advertisements
Track Severe Weather on mobile